Historique des mesures à Cassis (13260), France
Quotidien Résumé Mars 12, 2021 Unités:  Métrique/US    US   Métrique
Quotidien Hebdomadaire Mensuel Annuel
  Maximum: Minimum: Moyenne:
Température: 51.6 °F /  10.9 °C 35.8 °F /  2.1 °C 43 °F /  6.1 °C
Point de rosée: 35.1 °F /  1.7 °C 26.1 °F /  -3.3 °C 31.6 °F /  -0.2 °C
Humidité: 75% 53% 64%
Vitesse du vent: 50.3mph /  81km/h - 15.8mph /  25.4km/h
Rafales: 50.3mph /  81km/h - -
Vent- - WNW
Pression: 30 in /  1017.4 hPa 30 in /  1014.7 hPa -
Précipitations: 0 in /  0.0 mm    
Historical Graphs
 
 
Mesures pour : Mars 12, 2021
Heure Temperature Point de rosée Pression Vent Vitesse du vent Rafales Humidité Pluie (par heure)
00:10 39.7 °F /  4.3 °C 30 °F /  -1.1 °C 30in /  1015.9hPa NW 3.1mph /  5km/h 7mph /  11.2km/h 68% 0in /  0.0mm
01:11 39.2 °F /  4 °C 30.6 °F /  -0.8 °C 30in /  1015.9hPa NNW 3.6mph /  5.8km/h 8.5mph /  13.7km/h 71% 0in /  0.0mm
02:10 39 °F /  3.9 °C 31.1 °F /  -0.5 °C 30in /  1016.3hPa NW 3.1mph /  5km/h 6.5mph /  10.4km/h 73% 0in /  0.0mm
03:11 38.5 °F /  3.6 °C 30.6 °F /  -0.8 °C 30in /  1016.4hPa WNW 6.3mph /  10.1km/h 8.1mph /  13km/h 73% 0in /  0.0mm
04:10 37.6 °F /  3.1 °C 29.7 °F /  -1.3 °C 30in /  1016.3hPa NW 8.1mph /  13km/h 12.6mph /  20.2km/h 73% 0in /  0.0mm
05:11 36.7 °F /  2.6 °C 29.5 °F /  -1.4 °C 30in /  1016.2hPa WNW 6.5mph /  10.4km/h 16.3mph /  26.3km/h 75% 0in /  0.0mm
06:10 36.3 °F /  2.4 °C 28.4 °F /  -2 °C 30in /  1015.9hPa NW 11.2mph /  18km/h 14.5mph /  23.4km/h 73% 0in /  0.0mm
07:11 36.9 °F /  2.7 °C 28.8 °F /  -1.8 °C 30in /  1016.4hPa NW 13.2mph /  21.2km/h 17mph /  27.4km/h 72% 0in /  0.0mm
08:10 35.8 °F /  2.1 °C 26.6 °F /  -3 °C 30in /  1016.8hPa NW 3.1mph /  5km/h 4.5mph /  7.2km/h 69% 0in /  0.0mm
09:11 37.2 °F /  2.9 °C 26.1 °F /  -3.3 °C 30in /  1016.9hPa NW 13.7mph /  22km/h 20.6mph /  33.1km/h 64% 0in /  0.0mm
10:10 37.8 °F /  3.2 °C 27.7 °F /  -2.4 °C 30in /  1016.7hPa WNW 10.1mph /  16.2km/h 17.2mph /  27.7km/h 67% 0in /  0.0mm
11:11 41.4 °F /  5.2 °C 30 °F /  -1.1 °C 30in /  1017.4hPa North 13.7mph /  22km/h 17.2mph /  27.7km/h 64% 0in /  0.0mm
12:10 42.6 °F /  5.9 °C 30.4 °F /  -0.9 °C 30in /  1016.5hPa WNW 18.8mph /  30.2km/h 32.9mph /  52.9km/h 62% 0in /  0.0mm
13:11 46.8 °F /  8.2 °C 33.1 °F /  0.6 °C 30in /  1015.7hPa WNW 15mph /  24.1km/h 22.4mph /  36km/h 59% 0in /  0.0mm
14:10 50.2 °F /  10.1 °C 34.5 °F /  1.4 °C 30in /  1014.7hPa WNW 23.2mph /  37.4km/h 36.9mph /  59.4km/h 55% 0in /  0.0mm
15:11 51.6 °F /  10.9 °C 35.1 °F /  1.7 °C 30in /  1014.8hPa NW 16.8mph /  27km/h 31.7mph /  51.1km/h 53% 0in /  0.0mm
16:10 50.5 °F /  10.3 °C 34.5 °F /  1.4 °C 30in /  1015.6hPa WNW 21.5mph /  34.6km/h 29.5mph /  47.5km/h 54% 0in /  0.0mm
17:11 49.3 °F /  9.6 °C 34.2 °F /  1.2 °C 30in /  1015.9hPa WNW 17mph /  27.4km/h 21.2mph /  34.2km/h 56% 0in /  0.0mm
18:11 48.9 °F /  9.4 °C 34.3 °F /  1.3 °C 30in /  1015.7hPa West 25.3mph /  40.7km/h 34.4mph /  55.4km/h 57% 0in /  0.0mm
19:10 49.3 °F /  9.6 °C 34.2 °F /  1.2 °C 30in /  1015.0hPa WNW 50.3mph /  81km/h 50.3mph /  81km/h 56% 0in /  0.0mm
20:11 47.8 °F /  8.8 °C 34.7 °F /  1.5 °C 30in /  1015.4hPa WNW 25mph /  40.3km/h 34.2mph /  55.1km/h 60% 0in /  0.0mm
21:10 46.2 °F /  7.9 °C 34.7 °F /  1.5 °C 30in /  1016.0hPa West 11.6mph /  18.7km/h 22.4mph /  36km/h 64% 0in /  0.0mm
22:11 46.2 °F /  7.9 °C 34.7 °F /  1.5 °C 30in /  1015.9hPa NW 23.7mph /  38.2km/h 26mph /  41.8km/h 64% 0in /  0.0mm
23:10 46.4 °F /  8 °C 34.5 °F /  1.4 °C 30in /  1016.0hPa WNW 35.1mph /  56.5km/h 35.1mph /  56.5km/h 63% 0in /  0.0mm
Observations météo à CASSIS
WU-History script by Weather Underground - 2 mb